Time;durP1;ratioP1;P1;durP2;ratioP2;P2;SDS_P1;SDS_P2;PMS_P1;PMS_P2;Temp;Humidity;BMP_temperature;BMP_pressure;BME280_temperature;BME280_humidity;BME280_pressure;Samples;Min_cycle;Max_cycle;Signal;HPM_P1;HPM_P2
2023/09/24 00:01:58;;;;;;;43.43;7.80;;;22.90;73.10;;;23.44;51.15;94748.44;5079106;28;20963;-61
2023/09/24 00:04:26;;;;;;;26.10;7.20;;;22.80;73.40;;;23.40;50.74;94760.66;5075372;28;20467;-67
2023/09/24 00:06:53;;;;;;;23.93;7.00;;;22.80;73.20;;;23.36;51.30;94764.84;5076500;28;20563;-60
2023/09/24 00:09:20;;;;;;;31.27;7.07;;;22.70;73.90;;;23.32;51.06;94760.97;5083131;28;20526;-62
2023/09/24 00:11:48;;;;;;;28.80;6.30;;;22.70;74.00;;;23.30;51.54;94763.88;5079066;28;20490;-67
2023/09/24 00:14:15;;;;;;;30.37;8.33;;;22.70;74.10;;;23.29;51.64;94766.78;5082349;28;20558;-61
2023/09/24 00:16:44;;;;;;;28.10;7.07;;;22.70;74.20;;;23.25;50.84;94771.75;5079565;28;20512;-61
2023/09/24 00:19:11;;;;;;;20.23;6.57;;;22.60;74.20;;;23.22;51.87;94773.03;5081904;28;20462;-60
2023/09/24 00:21:39;;;;;;;29.23;6.93;;;22.60;74.80;;;23.20;51.36;94768.91;5081997;28;20451;-61
2023/09/24 00:24:07;;;;;;;33.00;7.37;;;22.60;75.00;;;23.18;51.68;94762.97;5081974;28;20477;-68
2023/09/24 00:26:34;;;;;;;35.20;6.63;;;22.60;75.10;;;23.16;51.70;94768.53;5079569;28;20486;-60
2023/09/24 00:29:03;;;;;;;25.70;5.53;;;22.60;75.00;;;23.14;51.53;94769.78;5081323;28;20550;-61
2023/09/24 00:31:30;;;;;;;29.77;6.37;;;22.60;75.00;;;23.12;51.01;94767.34;5079557;28;20489;-67
2023/09/24 00:33:59;;;;;;;37.77;7.10;;;22.50;74.70;;;23.09;51.52;94768.59;5081375;28;20493;-60
2023/09/24 00:36:26;;;;;;;27.13;5.93;;;22.50;75.10;;;23.05;51.08;94767.38;5079534;28;20445;-62
2023/09/24 00:38:54;;;;;;;24.23;6.37;;;22.50;75.10;;;23.03;51.70;94776.66;5080760;28;20471;-60
2023/09/24 00:41:21;;;;;;;35.93;5.93;;;22.40;75.10;;;23.01;51.18;94765.34;5079985;28;20456;-60
2023/09/24 00:43:48;;;;;;;33.23;6.30;;;22.40;75.70;;;23.01;51.48;94776.09;5080359;28;20568;-60
2023/09/24 00:46:16;;;;;;;30.13;6.83;;;22.40;75.30;;;22.99;51.31;94772.78;5080358;28;20876;-60
2023/09/24 00:48:44;;;;;;;33.50;6.87;;;22.40;75.30;;;22.98;51.28;94776.53;5080232;28;20457;-68
2023/09/24 00:51:16;;;;;;;31.73;5.63;;;22.40;75.80;;;22.97;51.34;94770.31;5080745;28;20450;-66
2023/09/24 00:53:42;;;;;;;26.37;6.83;;;22.30;75.80;;;22.96;52.05;94775.91;5080115;28;20822;-68
2023/09/24 00:56:11;;;;;;;27.00;5.73;;;22.40;75.80;;;22.94;51.30;94761.91;5080739;28;20447;-59
2023/09/24 00:58:39;;;;;;;25.07;5.80;;;22.40;75.80;;;22.91;51.08;94757.78;5082941;28;20541;-60
2023/09/24 01:01:06;;;;;;;29.90;7.20;;;22.30;75.70;;;22.88;51.29;94761.75;5079980;28;20450;-60
2023/09/24 01:03:33;;;;;;;23.17;5.93;;;22.30;75.70;;;22.85;51.28;94745.25;5079889;28;20455;-67
2023/09/24 01:06:01;;;;;;;22.33;6.20;;;22.30;75.70;;;22.83;51.53;94747.34;5081158;28;20457;-66
2023/09/24 01:08:33;;;;;;;44.37;7.40;;;22.20;75.60;;;22.79;51.17;94756.84;5083495;28;20508;-69
2023/09/24 01:11:01;;;;;;;26.93;6.97;;;22.20;75.60;;;22.76;51.36;94752.75;5079522;28;20507;-59
2023/09/24 01:13:37;;;;;;;33.00;6.47;;;22.20;76.30;;;22.74;51.68;94742.25;5082159;28;20450;-70
2023/09/24 01:16:07;;;;;;;22.33;5.57;;;22.10;76.60;;;22.73;51.48;94748.66;5081464;28;20460;-69
2023/09/24 01:18:36;;;;;;;47.77;8.00;;;22.10;76.70;;;22.72;51.60;94751.56;5078546;28;20520;-68
2023/09/24 01:21:04;;;;;;;28.33;6.23;;;22.10;76.80;;;22.67;51.88;94733.44;5081258;28;20454;-60
2023/09/24 01:23:37;;;;;;;28.90;6.00;;;22.10;77.30;;;22.63;51.69;94737.59;5080540;28;20564;-61
2023/09/24 01:26:04;;;;;;;31.03;6.13;;;22.10;77.60;;;22.60;52.09;94731.84;5073995;28;20946;-59
2023/09/24 01:28:31;;;;;;;21.90;6.80;;;22.00;77.40;;;22.55;52.35;94722.59;5081096;28;21098;-60
2023/09/24 01:30:59;;;;;;;25.17;6.17;;;22.00;78.20;;;22.54;52.40;94722.81;5077791;28;20455;-59
2023/09/24 01:33:27;;;;;;;38.63;6.73;;;21.90;78.60;;;22.49;52.63;94730.69;5081465;28;20457;-67
2023/09/24 01:35:54;;;;;;;29.93;5.97;;;21.90;78.70;;;22.47;52.49;94722.06;5078151;28;20451;-67
2023/09/24 01:38:21;;;;;;;33.77;6.70;;;21.90;79.20;;;22.46;52.78;94723.88;5080880;28;20542;-66
2023/09/24 01:40:51;;;;;;;38.57;6.67;;;21.90;79.70;;;22.45;53.52;94724.94;5078369;28;21015;-67
2023/09/24 01:43:18;;;;;;;20.83;6.40;;;21.80;80.00;;;22.44;53.68;94717.13;5081645;28;20820;-68
2023/09/24 01:45:47;;;;;;;33.93;6.93;;;21.90;80.80;;;22.42;52.84;94716.50;5078376;28;20990;-59
2023/09/24 01:48:15;;;;;;;46.20;6.80;;;21.80;80.20;;;22.37;52.69;94722.53;5080568;28;20576;-66
2023/09/24 01:50:44;;;;;;;21.07;6.40;;;21.80;79.60;;;22.30;53.11;94706.50;5078576;28;21058;-59
2023/09/24 01:53:11;;;;;;;31.77;7.37;;;21.70;79.60;;;22.26;53.11;94707.94;5080954;28;20966;-66
2023/09/24 01:55:40;;;;;;;30.63;6.23;;;21.70;80.40;;;22.24;53.29;94709.19;5078618;28;20527;-61
2023/09/24 01:58:12;;;;;;;32.23;6.30;;;21.70;80.20;;;22.21;53.54;94710.44;5080921;28;20452;-58
2023/09/24 02:00:39;;;;;;;30.90;7.17;;;21.60;80.60;;;22.19;52.99;94710.66;5077520;28;20971;-59
2023/09/24 02:03:07;;;;;;;44.50;7.13;;;21.60;81.00;;;22.19;53.64;94707.97;5080802;28;20552;-59
2023/09/24 02:05:35;;;;;;;25.63;6.60;;;21.60;81.50;;;22.17;53.54;94707.38;5077801;28;20471;-59
2023/09/24 02:08:05;;;;;;;30.37;5.67;;;21.60;81.50;;;22.17;53.30;94707.38;5084848;28;20492;-68
2023/09/24 02:10:33;;;;;;;36.53;6.33;;;21.60;81.50;;;22.14;53.94;94710.50;5082474;28;20884;-60
2023/09/24 02:13:01;;;;;;;30.60;5.63;;;21.60;82.40;;;22.15;54.02;94713.97;5084405;28;20508;-66
2023/09/24 02:15:30;;;;;;;16.90;6.77;;;21.60;82.40;;;22.11;53.69;94721.63;5081665;28;20495;-67
2023/09/24 02:17:58;;;;;;;42.03;6.20;;;21.60;82.50;;;22.09;53.68;94730.91;5085457;28;20442;-69
2023/09/24 02:20:31;;;;;;;25.90;5.57;;;21.50;82.70;;;22.05;53.87;94730.53;5085213;28;20465;-60
2023/09/24 02:23:00;;;;;;;25.07;6.30;;;21.50;83.20;;;22.05;53.85;94724.38;5077801;28;20823;-67
2023/09/24 02:25:28;;;;;;;28.13;6.00;;;21.50;83.50;;;22.03;53.98;94727.25;5077789;28;20481;-60
2023/09/24 02:27:56;;;;;;;29.07;6.53;;;21.50;84.20;;;22.03;54.18;94730.75;5077160;28;20567;-66
2023/09/24 02:30:24;;;;;;;34.17;6.63;;;21.40;84.50;;;22.01;54.49;94734.66;5081251;28;20471;-61
2023/09/24 02:32:53;;;;;;;25.53;6.20;;;21.40;84.80;;;21.99;54.67;94721.47;5077673;28;20490;-67
2023/09/24 02:35:20;;;;;;;28.10;5.83;;;21.40;85.30;;;21.97;54.66;94723.56;5077447;28;20470;-59
2023/09/24 02:37:50;;;;;;;23.63;7.10;;;21.40;85.50;;;21.95;54.42;94731.00;5084868;28;20445;-59
2023/09/24 02:40:21;;;;;;;39.10;6.20;;;21.40;85.50;;;21.89;54.54;94721.16;5084519;28;20470;-63
2023/09/24 02:42:49;;;;;;;70.77;8.07;;;21.30;85.50;;;21.83;54.25;94736.19;5077156;28;20788;-60
2023/09/24 02:45:17;;;;;;;31.17;5.73;;;21.30;85.20;;;21.77;54.60;94729.03;5084681;28;20473;-67
2023/09/24 02:47:44;;;;;;;39.27;6.40;;;21.20;85.50;;;21.72;54.50;94728.84;5077104;28;20486;-62
2023/09/24 02:50:13;;;;;;;32.57;6.20;;;21.20;85.70;;;21.69;54.55;94725.75;5076656;28;20512;-67
2023/09/24 02:52:41;;;;;;;38.57;6.47;;;21.10;85.70;;;21.64;54.57;94729.06;5076577;28;20485;-60
2023/09/24 02:55:13;;;;;;;29.57;6.93;;;21.10;86.10;;;21.62;54.89;94733.81;5076691;28;20482;-60
2023/09/24 02:57:41;;;;;;;35.53;6.33;;;21.00;86.50;;;21.58;55.00;94736.09;5077307;28;20441;-68
2023/09/24 03:00:12;;;;;;;33.90;6.40;;;21.00;87.20;;;21.57;54.94;94739.00;5080793;28;20965;-67
2023/09/24 03:02:40;;;;;;;24.83;6.40;;;21.00;87.30;;;21.54;55.06;94740.22;5083557;28;20462;-59
2023/09/24 03:05:10;;;;;;;29.07;6.50;;;21.00;87.20;;;21.49;54.91;94732.84;5080437;28;20525;-67
2023/09/24 03:07:40;;;;;;;48.03;7.30;;;21.00;87.90;;;21.50;55.48;94730.97;5083602;28;20477;-60
2023/09/24 03:10:09;;;;;;;23.73;5.50;;;20.90;88.00;;;21.45;54.95;94736.09;5080596;28;20501;-66
2023/09/24 03:12:36;;;;;;;24.73;5.40;;;20.90;87.80;;;21.42;55.39;94734.66;5082369;28;20951;-59
2023/09/24 03:15:05;;;;;;;29.80;6.50;;;20.90;88.50;;;21.41;55.30;94738.41;5082886;28;20477;-66
2023/09/24 03:17:33;;;;;;;22.97;6.17;;;20.90;88.70;;;21.41;55.27;94734.88;5080787;28;20455;-66
2023/09/24 03:20:04;;;;;;;26.67;6.33;;;20.90;89.20;;;21.38;55.39;94741.50;5083393;28;20553;-60
2023/09/24 03:22:32;;;;;;;30.87;6.27;;;20.80;89.10;;;21.36;55.44;94740.03;5081397;28;20441;-59
2023/09/24 03:25:01;;;;;;;36.83;6.40;;;20.80;89.10;;;21.33;55.26;94743.94;5082763;28;20466;-61
2023/09/24 03:27:28;;;;;;;36.67;7.07;;;20.80;89.40;;;21.30;55.39;94742.53;5081113;28;20540;-59
2023/09/24 03:29:55;;;;;;;28.43;6.40;;;20.80;89.40;;;21.29;55.73;94743.56;5083083;28;20461;-58
2023/09/24 03:32:23;;;;;;;45.33;6.87;;;20.80;90.00;;;21.27;55.78;94744.78;5080490;28;20454;-67
2023/09/24 03:34:52;;;;;;;26.10;7.37;;;20.70;90.10;;;21.26;56.01;94743.16;5083164;28;20474;-60
2023/09/24 03:37:20;;;;;;;19.20;6.47;;;20.70;90.30;;;21.24;55.77;94734.50;5080556;28;20447;-67
2023/09/24 03:39:47;;;;;;;28.43;5.67;;;20.70;90.50;;;21.24;55.92;94732.69;5082693;28;20542;-67
2023/09/24 03:42:16;;;;;;;26.53;6.37;;;20.70;90.60;;;21.24;56.34;94739.84;5080041;28;20439;-60
2023/09/24 03:44:43;;;;;;;35.27;7.30;;;20.70;90.70;;;21.24;56.13;94742.53;5082682;28;20599;-74
2023/09/24 03:47:10;;;;;;;40.80;6.37;;;20.70;90.90;;;21.22;56.30;94741.94;5080483;28;20447;-66
2023/09/24 03:49:37;;;;;;;43.17;7.73;;;20.70;91.00;;;21.21;56.08;94741.13;5082647;28;20469;-59
2023/09/24 03:52:05;;;;;;;23.47;6.53;;;20.70;91.00;;;21.20;56.32;94755.50;5079139;28;20451;-67
2023/09/24 03:54:33;;;;;;;26.10;6.10;;;20.60;91.20;;;21.18;55.98;94746.03;5078850;28;20479;-60
2023/09/24 03:57:00;;;;;;;27.63;6.50;;;20.70;91.20;;;21.14;56.62;94751.81;5076763;28;20455;-57
2023/09/24 03:59:29;;;;;;;30.27;6.73;;;20.60;91.30;;;21.14;56.75;94764.38;5074967;28;20477;-59
2023/09/24 04:01:56;;;;;;;24.77;6.07;;;20.60;91.60;;;21.11;56.64;94767.47;5075758;28;20822;-66
2023/09/24 04:04:23;;;;;;;21.23;5.27;;;20.60;91.70;;;21.11;56.74;94778.97;5082760;28;20469;-67
2023/09/24 04:06:51;;;;;;;42.93;6.80;;;20.60;91.90;;;21.13;56.71;94781.44;5079295;28;20904;-58
2023/09/24 04:09:18;;;;;;;36.47;5.97;;;20.60;92.00;;;21.14;56.58;94775.88;5083600;28;20486;-67
2023/09/24 04:11:47;;;;;;;22.13;5.67;;;20.60;92.50;;;21.20;56.87;94784.13;5082733;28;20469;-67
2023/09/24 04:14:14;;;;;;;27.77;6.70;;;20.60;92.10;;;21.23;56.83;94784.53;5079580;28;20494;-67
2023/09/24 04:16:43;;;;;;;38.67;6.30;;;20.70;92.40;;;21.27;56.64;94801.81;5082087;28;20533;-66
2023/09/24 04:19:11;;;;;;;15.77;6.40;;;20.70;92.20;;;21.29;56.53;94802.41;5079668;28;20459;-61
2023/09/24 04:21:38;;;;;;;23.60;6.57;;;20.70;92.20;;;21.33;56.38;94812.69;5082112;28;20450;-67
2023/09/24 04:24:06;;;;;;;29.43;7.17;;;20.80;92.20;;;21.31;56.66;94818.25;5079730;28;20837;-60
2023/09/24 04:26:34;;;;;;;20.63;7.10;;;20.80;92.20;;;21.33;56.65;94807.34;5081944;28;20534;-60
2023/09/24 04:29:01;;;;;;;23.00;6.40;;;20.80;92.50;;;21.30;56.40;94812.09;5079096;28;21036;-59
2023/09/24 04:31:29;;;;;;;33.80;6.70;;;20.80;92.40;;;21.29;56.87;94812.31;5081223;28;20443;-66
2023/09/24 04:33:57;;;;;;;29.20;8.67;;;20.70;92.40;;;21.28;57.18;94810.66;5080192;28;20473;-66
2023/09/24 04:36:25;;;;;;;20.73;6.70;;;20.70;92.80;;;21.28;57.07;94816.00;5081230;28;20458;-60
2023/09/24 04:38:52;;;;;;;25.87;6.80;;;20.70;92.90;;;21.27;57.08;94817.88;5080305;28;20466;-68
2023/09/24 04:41:20;;;;;;;23.33;6.67;;;20.70;92.90;;;21.29;57.16;94821.13;5081687;28;20451;-61
2023/09/24 04:43:48;;;;;;;23.33;7.13;;;20.70;93.10;;;21.28;56.99;94816.81;5080070;28;20507;-66
2023/09/24 04:46:15;;;;;;;28.50;7.37;;;20.70;93.20;;;21.30;57.45;94813.94;5080690;28;20467;-59
2023/09/24 04:48:42;;;;;;;17.67;6.33;;;20.70;93.30;;;21.30;57.33;94820.13;5080211;28;20497;-67
2023/09/24 04:51:11;;;;;;;22.70;6.00;;;20.80;93.60;;;21.30;57.44;94821.97;5080668;28;20973;-60
2023/09/24 04:53:39;;;;;;;29.90;6.90;;;20.80;93.50;;;21.32;57.56;94819.91;5080207;28;20648;-60
2023/09/24 04:56:08;;;;;;;32.90;7.20;;;20.80;93.70;;;21.35;57.44;94829.34;5079930;28;20530;-60
2023/09/24 04:58:35;;;;;;;24.83;7.63;;;20.80;93.70;;;21.38;57.56;94820.91;5080355;28;20525;-66
2023/09/24 05:01:06;;;;;;;21.10;7.33;;;20.80;93.90;;;21.42;57.41;94828.31;5079500;28;20959;-69
2023/09/24 05:03:35;;;;;;;28.93;9.13;;;20.90;93.80;;;21.47;57.47;94831.22;5080306;28;20989;-67
2023/09/24 05:06:03;;;;;;;34.97;7.50;;;20.90;93.90;;;21.54;57.14;94814.34;5080523;28;20450;-66
2023/09/24 05:08:32;;;;;;;34.00;7.60;;;21.00;93.80;;;21.60;57.25;94808.16;5080375;28;20489;-67
2023/09/24 05:11:00;;;;;;;27.13;7.60;;;21.00;93.70;;;21.63;56.90;94813.91;5079979;28;21130;-67
2023/09/24 05:13:27;;;;;;;39.53;7.13;;;21.10;93.70;;;21.69;57.14;94812.25;5081580;28;20451;-60
2023/09/24 05:15:59;;;;;;;28.50;8.60;;;21.10;93.60;;;21.71;56.78;94802.16;5080273;28;20450;-67
2023/09/24 05:18:27;;;;;;;28.43;6.07;;;21.10;93.60;;;21.77;57.08;94820.06;5080136;28;20443;-68
2023/09/24 05:20:54;;;;;;;29.13;7.83;;;21.20;93.50;;;21.84;56.81;94828.91;5079833;28;21029;-67
2023/09/24 05:23:22;;;;;;;24.63;9.23;;;21.30;93.60;;;21.93;56.91;94825.97;5079938;28;20512;-60
2023/09/24 05:25:50;;;;;;;27.17;7.07;;;21.30;93.60;;;22.01;56.39;94825.72;5079849;28;20470;-61
2023/09/24 05:28:18;;;;;;;27.20;7.70;;;21.40;93.50;;;22.07;56.74;94822.19;5079611;28;21027;-67
2023/09/24 05:30:53;;;;;;;20.80;8.20;;;21.50;93.50;;;22.15;56.31;94826.50;5079628;28;20579;-60
2023/09/24 05:33:20;;;;;;;34.20;8.73;;;21.60;93.40;;;22.20;56.24;94819.47;5080803;28;20454;-59
2023/09/24 05:35:51;;;;;;;22.10;6.13;;;21.60;93.30;;;22.28;56.23;94831.00;5078794;28;20473;-59
2023/09/24 05:38:19;;;;;;;20.63;6.80;;;21.70;93.20;;;22.34;56.51;94830.97;5081177;28;20486;-66
2023/09/24 05:40:46;;;;;;;21.57;6.63;;;21.70;93.10;;;22.41;56.54;94836.28;5078743;28;20585;-61
2023/09/24 05:43:15;;;;;;;23.50;6.30;;;21.80;93.10;;;22.46;56.26;94828.41;5084277;28;21053;-61
2023/09/24 05:45:46;;;;;;;19.73;6.70;;;21.90;93.10;;;22.54;55.94;94832.72;5083124;28;20465;-67
2023/09/24 05:48:15;;;;;;;26.60;6.47;;;21.90;93.00;;;22.61;55.99;94851.47;5084726;28;20556;-61
2023/09/24 05:50:42;;;;;;;28.67;7.57;;;22.00;93.00;;;22.71;55.66;94835.69;5082123;28;20471;-61
2023/09/24 05:53:10;;;;;;;25.13;7.53;;;22.10;93.00;;;22.86;56.01;94827.34;5084410;28;20548;-67
2023/09/24 05:55:37;;;;;;;30.80;6.70;;;22.20;92.90;;;23.05;55.80;94830.91;5082918;28;20466;-60
2023/09/24 05:58:05;;;;;;;25.80;6.13;;;22.40;92.80;;;23.25;55.30;94839.69;5084339;28;20451;-61
2023/09/24 06:00:36;;;;;;;24.07;7.00;;;22.60;92.60;;;23.50;54.50;94838.84;5083345;28;20474;-65
2023/09/24 06:03:04;;;;;;;24.73;6.67;;;22.80;92.40;;;23.75;54.23;94840.63;5085203;28;20476;-65
2023/09/24 06:05:32;;;;;;;40.83;6.83;;;23.10;92.10;;;24.02;54.14;94856.50;5083811;28;20995;-65
2023/09/24 06:07:59;;;;;;;16.23;5.37;;;23.30;91.70;;;24.26;53.18;94852.06;5083910;28;20450;-61
2023/09/24 06:10:26;;;;;;;23.13;5.33;;;23.60;91.40;;;24.49;52.77;94841.47;5082810;28;20840;-65
2023/09/24 06:12:54;;;;;;;26.03;5.40;;;23.70;90.80;;;24.73;52.47;94844.25;5084017;28;20454;-67
2023/09/24 06:15:21;;;;;;;12.53;5.23;;;24.00;90.40;;;24.99;52.62;94845.72;5083164;28;20512;-65
2023/09/24 06:17:50;;;;;;;17.07;5.13;;;24.20;90.20;;;25.24;52.01;94847.41;5083427;28;20591;-66
2023/09/24 06:20:17;;;;;;;14.17;5.13;;;24.50;89.70;;;25.50;51.30;94845.34;5082712;28;20461;-65
2023/09/24 06:22:45;;;;;;;21.50;6.20;;;24.70;88.90;;;25.74;51.14;94840.78;5082520;28;20457;-60
2023/09/24 06:25:13;;;;;;;20.60;5.50;;;25.00;88.10;;;25.99;50.71;94832.44;5080234;28;20557;-65
2023/09/24 06:27:41;;;;;;;23.07;6.27;;;25.30;87.40;;;26.24;50.39;94842.97;5083130;28;20456;-61
2023/09/24 06:30:10;;;;;;;27.93;4.97;;;25.50;86.50;;;26.52;50.01;94843.22;5082124;28;20564;-60
2023/09/24 06:32:37;;;;;;;20.27;5.30;;;25.70;85.60;;;26.75;49.50;94840.44;5082674;28;20461;-64
2023/09/24 06:35:07;;;;;;;16.70;4.57;;;26.00;84.50;;;27.03;48.99;94844.16;5082434;28;20470;-65
2023/09/24 06:37:34;;;;;;;19.67;3.90;;;26.30;83.90;;;27.28;48.79;94845.66;5082193;28;20452;-61
2023/09/24 06:40:01;;;;;;;17.63;4.87;;;26.50;82.40;;;27.42;48.09;94844.31;5070603;28;20470;-60
2023/09/24 06:42:29;;;;;;;19.37;4.63;;;26.70;81.10;;;27.58;48.12;94847.25;5083466;28;20468;-63
2023/09/24 06:44:56;;;;;;;23.57;4.70;;;26.80;80.10;;;27.72;47.30;94852.06;5082460;28;20466;-60
2023/09/24 06:47:23;;;;;;;26.80;5.47;;;26.90;79.70;;;27.88;47.19;94844.97;5083374;28;20452;-64
2023/09/24 06:49:51;;;;;;;24.87;4.90;;;27.10;78.70;;;27.97;46.53;94847.31;5081319;28;20490;-65
2023/09/24 06:52:19;;;;;;;56.50;12.87;;;27.20;77.60;;;28.03;46.28;94846.31;5082826;28;21063;-64
2023/09/24 06:54:47;;;;;;;16.93;5.40;;;27.30;76.60;;;28.13;46.56;94851.00;5080635;28;20478;-65
2023/09/24 06:57:14;;;;;;;17.03;3.60;;;27.30;76.70;;;28.40;46.82;94843.78;5083940;28;20514;-60
2023/09/24 06:59:42;;;;;;;27.33;5.70;;;27.60;76.90;;;28.77;46.37;94848.56;5080914;28;20473;-64
2023/09/24 07:02:09;;;;;;;34.57;6.23;;;27.90;75.90;;;29.05;45.47;94856.66;5083665;28;20450;-65
2023/09/24 07:04:37;;;;;;;24.53;5.33;;;28.20;74.60;;;29.40;44.90;94849.97;5080421;28;20498;-67
2023/09/24 07:07:04;;;;;;;26.07;4.80;;;28.50;74.10;;;29.72;44.50;94844.50;5083865;28;20796;-67
2023/09/24 07:09:33;;;;;;;23.67;5.63;;;28.90;72.90;;;30.06;43.31;94840.69;5080452;28;20493;-62
2023/09/24 07:12:00;;;;;;;18.60;5.30;;;29.20;71.80;;;30.47;43.53;94849.03;5077306;28;20458;-61
2023/09/24 07:14:27;;;;;;;14.27;4.87;;;29.50;71.10;;;30.88;43.15;94841.81;5083962;28;20523;-65
2023/09/24 07:16:55;;;;;;;14.00;6.00;;;29.90;70.20;;;31.33;42.18;94852.22;5076140;28;20450;-60
2023/09/24 07:19:22;;;;;;;23.50;5.87;;;30.40;69.50;;;31.70;41.58;94860.13;5075668;28;20693;-61
2023/09/24 07:21:49;;;;;;;19.10;6.07;;;30.80;68.20;;;32.02;41.56;94853.53;5083574;28;20203;-61
2023/09/24 07:24:17;;;;;;;18.97;5.73;;;31.10;66.50;;;32.40;40.81;94858.63;5080155;28;20224;-66
2023/09/24 07:26:46;;;;;;;17.10;6.30;;;31.40;65.50;;;32.75;40.49;94860.41;5083750;28;20210;-61
2023/09/24 07:29:13;;;;;;;7.97;4.53;;;31.80;63.80;;;33.10;39.11;94869.47;5080930;28;20297;-62
2023/09/24 07:31:40;;;;;;;16.85;4.78;;;32.20;62.00;;;33.34;38.55;94858.72;5083874;28;20227;-62
2023/09/24 07:34:09;;;;;;;16.95;4.78;;;32.50;60.70;;;33.57;38.00;94857.16;5080442;28;20220;-66
2023/09/24 07:36:36;;;;;;;29.98;5.82;;;32.80;59.70;;;33.86;37.60;94861.81;5083107;28;20200;-64
2023/09/24 07:39:04;;;;;;;23.38;6.10;;;33.20;58.90;;;34.20;37.00;94860.13;5080443;28;20228;-67
2023/09/24 07:41:31;;;;;;;40.10;6.13;;;33.50;58.50;;;34.58;36.49;94855.63;5082687;28;20279;-67
2023/09/24 07:44:00;;;;;;;23.38;6.57;;;33.90;57.20;;;34.82;36.30;94852.84;5080910;28;20281;-68
2023/09/24 07:46:27;;;;;;;20.80;6.53;;;34.20;55.90;;;35.08;36.00;94848.97;5082434;28;20207;-67
2023/09/24 07:48:54;;;;;;;23.45;6.70;;;34.50;55.90;;;35.41;34.86;94852.59;5080651;28;20314;-59
2023/09/24 07:51:22;;;;;;;31.83;7.35;;;34.80;55.00;;;35.77;35.45;94834.78;5081779;28;20211;-67
2023/09/24 07:53:50;;;;;;;26.90;6.50;;;35.20;54.90;;;36.06;34.51;94851.75;5081287;28;20289;-67
2023/09/24 07:56:18;;;;;;;27.20;7.68;;;35.40;53.80;;;35.98;34.26;94841.50;5081273;28;20314;-62
2023/09/24 07:58:45;;;;;;;14.77;6.07;;;35.50;52.40;;;35.65;33.76;94833.31;5080924;28;20207;-61
2023/09/24 08:01:14;;;;;;;25.23;7.47;;;35.30;52.20;;;35.39;34.62;94832.13;5081042;28;20204;-61
2023/09/24 08:03:44;;;;;;;20.45;6.00;;;35.10;52.10;;;35.13;34.66;94835.22;5080777;28;20618;-61
2023/09/24 08:06:11;;;;;;;19.63;6.47;;;34.80;52.20;;;34.94;33.81;94827.03;5081808;28;20207;-62
2023/09/24 08:08:38;;;;;;;28.23;6.25;;;34.50;52.40;;;34.79;34.62;94825.31;5081121;28;20204;-61
2023/09/24 08:11:05;;;;;;;44.85;9.93;;;34.40;52.70;;;34.78;34.69;94826.41;5080524;28;20226;-67
2023/09/24 08:13:33;;;;;;;40.25;9.68;;;34.30;52.90;;;34.73;35.11;94821.00;5080822;28;20210;-62
2023/09/24 08:16:00;;;;;;;57.35;18.08;;;34.20;53.00;;;34.48;34.79;94823.75;5080715;28;20661;-63
2023/09/24 08:18:29;;;;;;;48.88;12.63;;;34.00;52.90;;;34.13;35.80;94814.88;5081742;28;20351;-61
2023/09/24 08:20:57;;;;;;;37.67;13.63;;;33.70;53.10;;;33.82;35.45;94800.75;5079930;28;20523;-60
2023/09/24 08:23:25;;;;;;;52.35;18.48;;;33.40;53.80;;;33.58;35.97;94800.69;5081213;28;20258;-65
2023/09/24 08:25:52;;;;;;;20.20;8.02;;;33.10;54.30;;;33.32;36.87;94798.19;5079713;28;20735;-67
2023/09/24 08:28:20;;;;;;;19.70;6.68;;;32.80;54.40;;;32.95;36.32;94804.16;5081616;28;20545;-67
2023/09/24 08:30:47;;;;;;;30.15;5.88;;;32.50;54.40;;;32.50;36.67;94799.50;5079315;28;20228;-66
2023/09/24 08:33:14;;;;;;;41.85;10.80;;;32.10;55.00;;;32.18;37.45;94797.19;5081171;28;20211;-68
2023/09/24 08:35:43;;;;;;;17.80;6.15;;;31.70;55.60;;;31.93;37.73;94800.78;5078838;28;20216;-67
2023/09/24 08:38:10;;;;;;;28.27;6.82;;;31.40;56.00;;;31.67;37.60;94800.00;5081609;28;20669;-67
2023/09/24 08:40:39;;;;;;;27.52;8.35;;;31.10;56.50;;;31.44;38.34;94804.91;5079251;28;20235;-66
2023/09/24 08:43:10;;;;;;;27.05;7.13;;;30.90;56.90;;;31.18;38.29;94791.34;5081996;28;20276;-60
2023/09/24 08:45:37;;;;;;;24.67;8.13;;;30.60;56.80;;;30.95;39.48;94791.84;5079493;28;20311;-67
2023/09/24 08:48:09;;;;;;;27.35;7.10;;;30.40;57.60;;;30.65;39.50;94799.66;5081561;28;20303;-68
2023/09/24 08:50:37;;;;;;;18.47;6.57;;;30.10;57.80;;;30.32;39.70;94787.31;5083628;28;20232;-60
2023/09/24 08:53:09;;;;;;;23.63;7.87;;;29.80;58.20;;;30.08;39.70;94779.66;5081156;28;20279;-65
2023/09/24 08:55:36;;;;;;;27.00;7.00;;;29.60;58.80;;;29.94;40.66;94786.63;5079871;28;20224;-60
2023/09/24 08:58:04;;;;;;;30.10;6.53;;;29.40;59.10;;;29.81;41.02;94790.66;5082137;28;20209;-66
2023/09/24 09:00:31;;;;;;;31.00;7.90;;;29.20;59.50;;;29.66;41.09;94786.72;5079676;28;20218;-63
2023/09/24 09:03:02;;;;;;;30.13;7.80;;;29.00;59.80;;;29.58;41.39;94781.00;5080815;28;20203;-66
2023/09/24 09:05:29;;;;;;;24.70;8.67;;;28.90;60.20;;;29.49;41.25;94777.94;5079444;28;20224;-66
2023/09/24 09:07:58;;;;;;;19.20;5.63;;;28.90;60.60;;;29.44;41.25;94783.34;5081709;28;20200;-65
2023/09/24 09:10:27;;;;;;;27.13;6.07;;;28.80;60.90;;;29.36;41.24;94784.66;5080274;28;20289;-60
2023/09/24 09:13:08;;;;;;;26.90;6.50;;;28.70;61.20;;;29.26;41.28;94785.38;5079750;28;20208;-59
2023/09/24 09:15:36;;;;;;;30.57;6.50;;;28.60;61.20;;;29.10;41.97;94779.00;5077911;28;20239;-67
2023/09/24 09:18:04;;;;;;;20.80;7.03;;;28.50;61.10;;;29.00;41.42;94780.81;5080895;28;20213;-66
2023/09/24 09:20:45;;;;;;;19.83;5.40;;;28.40;61.40;;;28.94;41.79;94779.97;5078316;28;20228;-65
2023/09/24 09:23:15;;;;;;;18.53;6.53;;;28.30;61.90;;;28.87;41.92;94776.63;5078567;28;20204;-59
2023/09/24 09:25:52;;;;;;;30.00;7.40;;;28.20;62.10;;;28.81;42.12;94783.88;5080521;28;20556;-60
2023/09/24 09:28:24;;;;;;;28.23;6.10;;;28.20;62.30;;;28.78;42.79;94776.28;5079653;28;20613;-61
2023/09/24 09:31:02;;;;;;;24.13;7.00;;;28.20;62.40;;;28.82;42.10;94777.41;5078489;28;20493;-60
2023/09/24 09:33:30;;;;;;;29.63;6.67;;;28.20;62.60;;;28.85;42.28;94774.19;5073623;28;20253;-61
2023/09/24 09:35:58;;;;;;;32.20;6.40;;;28.20;62.70;;;28.87;42.54;94788.28;5077815;28;20206;-59
2023/09/24 09:38:25;;;;;;;30.93;6.37;;;28.20;62.70;;;28.91;41.97;94777.75;5073479;28;20258;-61
2023/09/24 09:40:56;;;;;;;19.90;6.10;;;28.30;62.80;;;28.95;42.62;94784.28;5080932;28;20731;-61
2023/09/24 09:43:25;;;;;;;16.30;5.60;;;28.30;62.70;;;29.00;42.60;94780.81;5073643;28;20993;-62
2023/09/24 09:45:53;;;;;;;20.70;6.97;;;28.30;62.60;;;29.05;41.85;94778.13;5073492;28;20531;-60
2023/09/24 09:48:32;;;;;;;29.93;6.67;;;28.30;62.40;;;29.09;42.11;94785.47;5073987;28;20674;-62
2023/09/24 09:51:02;;;;;;;27.10;5.90;;;28.40;62.30;;;29.14;41.70;94792.81;5075968;28;20581;-60
2023/09/24 09:53:34;;;;;;;22.07;6.40;;;28.40;62.10;;;29.19;42.14;94790.19;5079873;28;20462;-61
2023/09/24 09:56:04;;;;;;;29.33;7.40;;;28.50;62.00;;;29.23;41.83;94791.31;5079731;28;20239;-61
2023/09/24 09:58:36;;;;;;;24.93;6.53;;;28.50;61.90;;;29.28;41.96;94783.22;5079032;28;20446;-62
2023/09/24 10:01:03;;;;;;;28.50;6.87;;;28.60;62.00;;;29.30;42.05;94791.09;5080000;28;20508;-61
2023/09/24 10:03:33;;;;;;;31.17;6.73;;;28.70;62.00;;;29.35;42.00;94787.63;5078330;28;20954;-61
2023/09/24 10:06:01;;;;;;;26.37;7.30;;;28.60;61.90;;;29.38;41.90;94787.91;5079764;28;21126;-61
2023/09/24 10:08:44;;;;;;;29.93;6.07;;;28.70;61.60;;;29.33;41.60;94791.38;5078619;28;20441;-62
2023/09/24 10:11:16;;;;;;;21.73;5.67;;;28.70;61.30;;;29.26;42.06;94779.94;5065754;28;20224;-61
2023/09/24 10:13:48;;;;;;;21.93;6.90;;;28.60;61.60;;;29.33;41.94;94780.56;5076952;28;20249;-60
2023/09/24 10:16:37;;;;;;;25.73;6.60;;;28.70;61.80;;;29.42;40.95;94785.47;5078683;28;20813;-66
2023/09/24 10:19:06;;;;;;;30.63;6.40;;;28.70;61.30;;;29.41;41.88;94767.59;5073882;28;20269;-65